Time,TemperatureF,DewpointF,PressureIn,WindDirection,WindDirectionDegrees,WindSpeedMPH,WindSpeedGustMPH,Humidity,HourlyPrecipIn,Conditions,Clouds,dailyrainin,SoftwareType,DateUTC
2013-02-26 00:01:00,27.8,26.0,30.15,SSE,154,0.0,0.0,93,0.00,,,0.00,HR-IXPWINDi_r2_v1.2.,2013-02-26 06:01:00,
2013-02-26 00:07:00,27.8,26.0,30.16,SSE,154,0.0,0.0,93,0.00,,,0.00,HR-IXPWINDi_r2_v1.2.,2013-02-26 06:07:00,
2013-02-26 00:12:00,27.8,26.0,30.15,SSE,154,0.0,0.0,93,0.00,,,0.00,HR-IXPWINDi_r2_v1.2.,2013-02-26 06:12:00,
2013-02-26 00:17:00,27.8,26.0,30.15,SSE,154,0.0,0.0,93,0.00,,,0.00,HR-IXPWINDi_r2_v1.2.,2013-02-26 06:17:00,
2013-02-26 00:22:00,27.7,25.9,30.15,SSE,154,0.0,0.0,93,0.00,,,0.00,HR-IXPWINDi_r2_v1.2.,2013-02-26 06:22:00,
2013-02-26 00:27:00,27.7,25.9,30.15,SSE,154,0.0,0.0,93,0.00,,,0.00,HR-IXPWINDi_r2_v1.2.,2013-02-26 06:27:00,
2013-02-26 00:32:00,27.7,25.9,30.15,SSE,154,0.0,0.0,93,0.00,,,0.00,HR-IXPWINDi_r2_v1.2.,2013-02-26 06:32:00,
2013-02-26 00:38:00,27.6,25.8,30.15,SSE,154,0.0,0.0,93,0.00,,,0.00,HR-IXPWINDi_r2_v1.2.,2013-02-26 06:38:00,
2013-02-26 00:43:00,27.6,25.8,30.15,SE,142,1.0,2.0,93,0.00,,,0.00,HR-IXPWINDi_r2_v1.2.,2013-02-26 06:43:00,
2013-02-26 00:48:00,27.7,25.9,30.16,SE,142,0.0,2.0,93,0.00,,,0.00,HR-IXPWINDi_r2_v1.2.,2013-02-26 06:48:00,
2013-02-26 00:53:00,27.7,25.9,30.16,SE,142,0.0,2.0,93,0.00,,,0.00,HR-IXPWINDi_r2_v1.2.,2013-02-26 06:53:00,
2013-02-26 00:58:00,27.6,25.8,30.16,SE,142,0.0,0.0,93,0.00,,,0.00,HR-IXPWINDi_r2_v1.2.,2013-02-26 06:58:00,
2013-02-26 01:04:00,27.5,25.7,30.16,SE,142,0.0,0.0,93,0.00,,,0.00,HR-IXPWINDi_r2_v1.2.,2013-02-26 07:04:00,
2013-02-26 01:09:00,27.5,25.7,30.16,SE,142,0.0,0.0,93,0.00,,,0.00,HR-IXPWINDi_r2_v1.2.,2013-02-26 07:09:00,
2013-02-26 01:14:00,27.5,25.7,30.16,SE,142,0.0,0.0,93,0.00,,,0.00,HR-IXPWINDi_r2_v1.2.,2013-02-26 07:14:00,
2013-02-26 01:19:00,27.4,25.6,30.16,SE,142,0.0,0.0,93,0.00,,,0.00,HR-IXPWINDi_r2_v1.2.,2013-02-26 07:19:00,
2013-02-26 01:24:00,27.3,25.5,30.15,SE,142,0.0,0.0,93,0.00,,,0.00,HR-IXPWINDi_r2_v1.2.,2013-02-26 07:24:00,
2013-02-26 01:29:00,27.2,25.4,30.15,SE,142,0.0,1.0,93,0.00,,,0.00,HR-IXPWINDi_r2_v1.2.,2013-02-26 07:29:00,
2013-02-26 01:34:00,27.1,25.3,30.15,SE,142,0.0,1.0,93,0.00,,,0.00,HR-IXPWINDi_r2_v1.2.,2013-02-26 07:34:00,
2013-02-26 01:40:00,27.0,25.2,30.15,SE,142,0.0,0.0,93,0.00,,,0.00,HR-IXPWINDi_r2_v1.2.,2013-02-26 07:40:00,
2013-02-26 01:45:00,26.9,25.1,30.14,SE,142,0.0,0.0,93,0.00,,,0.00,HR-IXPWINDi_r2_v1.2.,2013-02-26 07:45:00,
2013-02-26 01:50:00,26.8,25.0,30.14,SE,142,0.0,0.0,93,0.00,,,0.00,HR-IXPWINDi_r2_v1.2.,2013-02-26 07:50:00,
2013-02-26 01:55:00,26.6,24.8,30.15,SE,142,0.0,0.0,93,0.00,,,0.00,HR-IXPWINDi_r2_v1.2.,2013-02-26 07:55:00,
2013-02-26 02:01:00,26.4,24.6,30.14,SE,142,0.0,0.0,93,0.00,,,0.00,HR-IXPWINDi_r2_v1.2.,2013-02-26 08:01:00,
2013-02-26 02:06:00,26.2,24.4,30.15,SE,143,0.0,0.0,93,0.00,,,0.00,HR-IXPWINDi_r2_v1.2.,2013-02-26 08:06:00,
2013-02-26 02:11:00,25.7,23.7,30.15,SE,142,0.0,0.0,92,0.00,,,0.00,HR-IXPWINDi_r2_v1.2.,2013-02-26 08:11:00,
2013-02-26 02:16:00,25.3,23.3,30.15,SE,142,0.0,0.0,92,0.00,,,0.00,HR-IXPWINDi_r2_v1.2.,2013-02-26 08:16:00,
2013-02-26 02:22:00,25.1,23.4,30.14,SE,142,0.0,0.0,93,0.00,,,0.00,HR-IXPWINDi_r2_v1.2.,2013-02-26 08:22:00,
2013-02-26 02:27:00,25.0,23.3,30.15,SE,142,0.0,0.0,93,0.00,,,0.00,HR-IXPWINDi_r2_v1.2.,2013-02-26 08:27:00,
2013-02-26 02:32:00,24.9,23.4,30.15,SE,142,0.0,0.0,94,0.00,,,0.00,HR-IXPWINDi_r2_v1.2.,2013-02-26 08:32:00,
2013-02-26 02:37:00,24.8,23.3,30.14,SE,142,0.0,0.0,94,0.00,,,0.00,HR-IXPWINDi_r2_v1.2.,2013-02-26 08:37:00,
2013-02-26 02:42:00,24.7,23.2,30.15,SE,142,0.0,0.0,94,0.00,,,0.00,HR-IXPWINDi_r2_v1.2.,2013-02-26 08:42:00,
2013-02-26 02:47:00,24.5,23.0,30.14,SE,142,0.0,1.0,94,0.00,,,0.00,HR-IXPWINDi_r2_v1.2.,2013-02-26 08:47:00,
2013-02-26 02:53:00,24.4,22.9,30.14,SE,142,0.0,1.0,94,0.00,,,0.00,HR-IXPWINDi_r2_v1.2.,2013-02-26 08:53:00,
2013-02-26 02:58:00,24.3,22.8,30.14,SE,142,0.0,0.0,94,0.00,,,0.00,HR-IXPWINDi_r2_v1.2.,2013-02-26 08:58:00,
2013-02-26 03:03:00,23.8,21.8,30.14,SE,142,0.0,0.0,92,0.00,,,0.00,HR-IXPWINDi_r2_v1.2.,2013-02-26 09:03:00,
2013-02-26 03:08:00,23.4,21.4,30.14,SE,142,0.0,0.0,92,0.00,,,0.00,HR-IXPWINDi_r2_v1.2.,2013-02-26 09:08:00,
2013-02-26 03:13:00,23.0,21.3,30.14,SE,142,0.0,0.0,93,0.00,,,0.00,HR-IXPWINDi_r2_v1.2.,2013-02-26 09:13:00,
2013-02-26 03:18:00,22.7,20.7,30.14,SE,142,0.0,0.0,92,0.00,,,0.00,HR-IXPWINDi_r2_v1.2.,2013-02-26 09:18:00,
2013-02-26 03:24:00,22.3,20.3,30.14,SE,142,0.0,0.0,92,0.00,,,0.00,HR-IXPWINDi_r2_v1.2.,2013-02-26 09:24:00,
2013-02-26 03:29:00,22.1,20.4,30.14,SE,142,0.0,0.0,93,0.00,,,0.00,HR-IXPWINDi_r2_v1.2.,2013-02-26 09:29:00,
2013-02-26 03:34:00,22.0,20.3,30.13,SE,142,0.0,0.0,93,0.00,,,0.00,HR-IXPWINDi_r2_v1.2.,2013-02-26 09:34:00,
2013-02-26 03:39:00,22.0,20.8,30.14,SE,142,0.0,0.0,95,0.00,,,0.00,HR-IXPWINDi_r2_v1.2.,2013-02-26 09:39:00,
2013-02-26 03:44:00,22.0,20.8,30.14,SE,142,0.0,0.0,95,0.00,,,0.00,HR-IXPWINDi_r2_v1.2.,2013-02-26 09:44:00,
2013-02-26 03:49:00,21.7,20.2,30.13,SE,142,0.0,0.0,94,0.00,,,0.00,HR-IXPWINDi_r2_v1.2.,2013-02-26 09:49:00,
2013-02-26 03:55:00,21.5,20.1,30.13,SE,143,0.0,0.0,94,0.00,,,0.00,HR-IXPWINDi_r2_v1.2.,2013-02-26 09:55:00,
2013-02-26 04:00:00,21.5,20.3,30.12,SE,142,1.0,1.0,95,0.00,,,0.00,HR-IXPWINDi_r2_v1.2.,2013-02-26 10:00:00,
2013-02-26 04:05:00,21.5,20.3,30.12,SE,142,0.0,1.0,95,0.00,,,0.00,HR-IXPWINDi_r2_v1.2.,2013-02-26 10:05:00,
2013-02-26 04:10:00,21.6,20.4,30.12,SE,142,0.0,1.0,95,0.00,,,0.00,HR-IXPWINDi_r2_v1.2.,2013-02-26 10:10:00,
2013-02-26 04:15:00,21.5,20.3,30.11,SE,143,0.0,1.0,95,0.00,,,0.00,HR-IXPWINDi_r2_v1.2.,2013-02-26 10:15:00,
2013-02-26 04:20:00,21.4,20.2,30.11,SE,143,0.0,1.0,95,0.00,,,0.00,HR-IXPWINDi_r2_v1.2.,2013-02-26 10:20:00,
2013-02-26 04:25:00,21.4,20.4,30.10,SE,142,0.0,1.0,96,0.00,,,0.00,HR-IXPWINDi_r2_v1.2.,2013-02-26 10:25:00,
2013-02-26 04:30:00,21.1,19.9,30.10,SE,142,0.0,0.0,95,0.00,,,0.00,HR-IXPWINDi_r2_v1.2.,2013-02-26 10:30:00,
2013-02-26 04:36:00,20.9,19.7,30.10,SE,142,0.0,0.0,95,0.00,,,0.00,HR-IXPWINDi_r2_v1.2.,2013-02-26 10:36:00,
2013-02-26 04:41:00,20.8,19.6,30.10,SE,142,0.0,0.0,95,0.00,,,0.00,HR-IXPWINDi_r2_v1.2.,2013-02-26 10:41:00,
2013-02-26 04:46:00,19.9,18.0,30.11,SE,142,0.0,0.0,92,0.00,,,0.00,HR-IXPWINDi_r2_v1.2.,2013-02-26 10:46:00,
2013-02-26 04:51:00,19.4,17.7,30.11,SE,142,0.0,0.0,93,0.00,,,0.00,HR-IXPWINDi_r2_v1.2.,2013-02-26 10:51:00,
2013-02-26 04:57:00,18.8,16.9,30.11,SE,142,0.0,0.0,92,0.00,,,0.00,HR-IXPWINDi_r2_v1.2.,2013-02-26 10:57:00,
2013-02-26 05:02:00,18.5,16.8,30.11,SE,142,0.0,0.0,93,0.00,,,0.00,HR-IXPWINDi_r2_v1.2.,2013-02-26 11:02:00,
2013-02-26 05:07:00,19.0,17.8,30.11,SE,142,0.0,0.0,95,0.00,,,0.00,HR-IXPWINDi_r2_v1.2.,2013-02-26 11:07:00,
2013-02-26 05:12:00,19.3,18.4,30.11,SE,142,0.0,0.0,96,0.00,,,0.00,HR-IXPWINDi_r2_v1.2.,2013-02-26 11:12:00,
2013-02-26 05:17:00,19.6,18.7,30.10,SE,142,0.0,0.0,96,0.00,,,0.00,HR-IXPWINDi_r2_v1.2.,2013-02-26 11:17:00,
2013-02-26 05:22:00,19.7,18.8,30.10,SE,142,0.0,1.0,96,0.00,,,0.00,HR-IXPWINDi_r2_v1.2.,2013-02-26 11:22:00,
2013-02-26 05:28:00,19.7,18.8,30.10,SE,142,0.0,1.0,96,0.00,,,0.00,HR-IXPWINDi_r2_v1.2.,2013-02-26 11:28:00,
2013-02-26 05:33:00,20.2,19.3,30.10,SE,142,0.0,0.0,96,0.00,,,0.00,HR-IXPWINDi_r2_v1.2.,2013-02-26 11:33:00,
2013-02-26 05:38:00,20.0,19.1,30.10,SE,142,0.0,1.0,96,0.00,,,0.00,HR-IXPWINDi_r2_v1.2.,2013-02-26 11:38:00,
2013-02-26 05:43:00,19.5,18.1,30.10,SE,142,0.0,1.0,94,0.00,,,0.00,HR-IXPWINDi_r2_v1.2.,2013-02-26 11:43:00,
2013-02-26 05:48:00,18.9,17.5,30.10,SE,143,0.0,0.0,94,0.00,,,0.00,HR-IXPWINDi_r2_v1.2.,2013-02-26 11:48:00,
2013-02-26 05:53:00,17.7,15.3,30.11,SE,142,0.0,0.0,90,0.00,,,0.00,HR-IXPWINDi_r2_v1.2.,2013-02-26 11:53:00,
2013-02-26 05:59:00,17.3,15.7,30.10,SE,143,0.0,0.0,93,0.00,,,0.00,HR-IXPWINDi_r2_v1.2.,2013-02-26 11:59:00,
2013-02-26 06:04:00,17.7,16.5,30.11,SE,142,0.0,0.0,95,0.00,,,0.00,HR-IXPWINDi_r2_v1.2.,2013-02-26 12:04:00,
2013-02-26 06:09:00,18.0,16.8,30.10,SE,142,0.0,1.0,95,0.00,,,0.00,HR-IXPWINDi_r2_v1.2.,2013-02-26 12:09:00,
2013-02-26 06:14:00,18.0,16.8,30.11,SE,142,0.0,1.0,95,0.00,,,0.00,HR-IXPWINDi_r2_v1.2.,2013-02-26 12:14:00,
2013-02-26 06:19:00,17.9,16.7,30.11,SE,142,0.0,0.0,95,0.00,,,0.00,HR-IXPWINDi_r2_v1.2.,2013-02-26 12:19:00,
2013-02-26 06:24:00,17.4,15.8,30.12,SE,142,0.0,0.0,93,0.00,,,0.00,HR-IXPWINDi_r2_v1.2.,2013-02-26 12:24:00,
2013-02-26 06:29:00,17.6,16.4,30.12,SE,142,0.0,0.0,95,0.00,,,0.00,HR-IXPWINDi_r2_v1.2.,2013-02-26 12:29:00,
2013-02-26 06:35:00,17.1,15.2,30.12,SE,142,0.0,0.0,92,0.00,,,0.00,HR-IXPWINDi_r2_v1.2.,2013-02-26 12:35:00,
2013-02-26 06:40:00,16.5,14.9,30.12,SE,142,0.0,0.0,93,0.00,,,0.00,HR-IXPWINDi_r2_v1.2.,2013-02-26 12:40:00,
2013-02-26 06:45:00,16.8,15.6,30.13,SE,142,0.0,0.0,95,0.00,,,0.00,HR-IXPWINDi_r2_v1.2.,2013-02-26 12:45:00,
2013-02-26 06:50:00,17.1,15.9,30.13,SE,142,0.0,0.0,95,0.00,,,0.00,HR-IXPWINDi_r2_v1.2.,2013-02-26 12:50:00,
2013-02-26 06:56:00,17.7,16.8,30.13,SE,142,0.0,1.0,96,0.00,,,0.00,HR-IXPWINDi_r2_v1.2.,2013-02-26 12:56:00,
2013-02-26 07:01:00,18.4,17.5,30.12,SE,142,1.0,1.0,96,0.00,,,0.00,HR-IXPWINDi_r2_v1.2.,2013-02-26 13:01:00,
2013-02-26 07:06:00,18.8,17.9,30.12,SE,142,1.0,1.0,96,0.00,,,0.00,HR-IXPWINDi_r2_v1.2.,2013-02-26 13:06:00,
2013-02-26 07:11:00,18.9,18.0,30.12,SE,142,0.0,1.0,96,0.00,,,0.00,HR-IXPWINDi_r2_v1.2.,2013-02-26 13:11:00,
2013-02-26 07:16:00,19.3,18.4,30.12,SE,142,1.0,1.0,96,0.00,,,0.00,HR-IXPWINDi_r2_v1.2.,2013-02-26 13:16:00,
2013-02-26 07:21:00,19.4,18.2,30.11,SE,142,0.0,1.0,95,0.00,,,0.00,HR-IXPWINDi_r2_v1.2.,2013-02-26 13:21:00,
2013-02-26 07:27:00,19.4,18.2,30.11,SE,142,0.0,2.0,95,0.00,,,0.00,HR-IXPWINDi_r2_v1.2.,2013-02-26 13:27:00,
2013-02-26 07:32:00,19.5,18.3,30.11,ESE,104,1.0,2.0,95,0.00,,,0.00,HR-IXPWINDi_r2_v1.2.,2013-02-26 13:32:00,
2013-02-26 07:37:00,19.7,18.5,30.11,East,101,0.0,2.0,95,0.00,,,0.00,HR-IXPWINDi_r2_v1.2.,2013-02-26 13:37:00,
2013-02-26 07:42:00,20.0,19.1,30.11,East,101,0.0,1.0,96,0.00,,,0.00,HR-IXPWINDi_r2_v1.2.,2013-02-26 13:42:00,
2013-02-26 07:47:00,20.8,19.8,30.11,East,82,0.0,2.0,96,0.00,,,0.00,HR-IXPWINDi_r2_v1.2.,2013-02-26 13:47:00,
2013-02-26 07:52:00,21.6,20.9,30.10,East,82,0.0,2.0,97,0.00,,,0.00,HR-IXPWINDi_r2_v1.2.,2013-02-26 13:52:00,
2013-02-26 07:57:00,22.3,21.6,30.10,East,82,0.0,2.0,97,0.00,,,0.00,HR-IXPWINDi_r2_v1.2.,2013-02-26 13:57:00,
2013-02-26 08:03:00,22.9,22.2,30.10,ENE,67,1.0,5.0,97,0.00,,,0.00,HR-IXPWINDi_r2_v1.2.,2013-02-26 14:03:00,
2013-02-26 08:08:00,23.1,22.1,30.10,East,84,3.0,6.0,96,0.00,,,0.00,HR-IXPWINDi_r2_v1.2.,2013-02-26 14:08:00,
2013-02-26 08:13:00,23.5,22.5,30.11,East,96,4.0,6.0,96,0.00,,,0.00,HR-IXPWINDi_r2_v1.2.,2013-02-26 14:13:00,
2013-02-26 08:18:00,23.7,22.7,30.11,ESE,116,0.0,7.0,96,0.00,,,0.00,HR-IXPWINDi_r2_v1.2.,2013-02-26 14:18:00,
2013-02-26 08:24:00,24.0,23.0,30.11,ENE,71,1.0,7.0,96,0.00,,,0.00,HR-IXPWINDi_r2_v1.2.,2013-02-26 14:24:00,
2013-02-26 08:29:00,24.2,23.2,30.11,ESE,120,4.0,5.0,96,0.00,,,0.00,HR-IXPWINDi_r2_v1.2.,2013-02-26 14:29:00,
2013-02-26 08:34:00,24.5,23.5,30.11,East,97,2.0,5.0,96,0.00,,,0.00,HR-IXPWINDi_r2_v1.2.,2013-02-26 14:34:00,
2013-02-26 08:39:00,24.8,23.8,30.11,ENE,70,2.0,5.0,96,0.00,,,0.00,HR-IXPWINDi_r2_v1.2.,2013-02-26 14:39:00,
2013-02-26 08:44:00,25.2,24.2,30.11,East,94,0.0,7.0,96,0.00,,,0.00,HR-IXPWINDi_r2_v1.2.,2013-02-26 14:44:00,
2013-02-26 08:50:00,25.6,24.6,30.11,East,82,0.0,7.0,96,0.00,,,0.00,HR-IXPWINDi_r2_v1.2.,2013-02-26 14:50:00,
2013-02-26 08:55:00,25.9,24.9,30.11,East,82,1.0,7.0,96,0.00,,,0.00,HR-IXPWINDi_r2_v1.2.,2013-02-26 14:55:00,
2013-02-26 09:00:00,26.0,24.8,30.11,NE,45,3.0,7.0,95,0.00,,,0.00,HR-IXPWINDi_r2_v1.2.,2013-02-26 15:00:00,
2013-02-26 09:05:00,26.2,25.0,30.10,ENE,72,0.0,8.0,95,0.00,,,0.00,HR-IXPWINDi_r2_v1.2.,2013-02-26 15:05:00,
2013-02-26 09:10:00,26.3,25.1,30.11,NE,54,0.0,8.0,95,0.00,,,0.00,HR-IXPWINDi_r2_v1.2.,2013-02-26 15:10:00,
2013-02-26 09:15:00,26.5,25.3,30.11,ENE,65,0.0,4.0,95,0.00,,,0.00,HR-IXPWINDi_r2_v1.2.,2013-02-26 15:15:00,
2013-02-26 09:20:00,26.6,25.4,30.11,East,82,0.0,4.0,95,0.00,,,0.00,HR-IXPWINDi_r2_v1.2.,2013-02-26 15:20:00,
2013-02-26 09:26:00,26.7,25.4,30.11,ENE,78,0.0,4.0,95,0.00,,,0.00,HR-IXPWINDi_r2_v1.2.,2013-02-26 15:26:00,
2013-02-26 09:31:00,26.9,25.6,30.11,East,85,0.0,4.0,95,0.00,,,0.00,HR-IXPWINDi_r2_v1.2.,2013-02-26 15:31:00,
2013-02-26 09:36:00,27.0,25.7,30.11,East,86,2.0,4.0,95,0.00,,,0.00,HR-IXPWINDi_r2_v1.2.,2013-02-26 15:36:00,
2013-02-26 09:41:00,27.1,25.8,30.10,ENE,76,1.0,7.0,95,0.00,,,0.00,HR-IXPWINDi_r2_v1.2.,2013-02-26 15:41:00,
2013-02-26 09:46:00,27.2,25.7,30.10,East,96,1.0,7.0,94,0.00,,,0.00,HR-IXPWINDi_r2_v1.2.,2013-02-26 15:46:00,
2013-02-26 09:51:00,27.3,26.0,30.10,ENE,74,0.0,4.0,95,0.00,,,0.00,HR-IXPWINDi_r2_v1.2.,2013-02-26 15:51:00,
2013-02-26 09:57:00,27.5,26.0,30.10,ENE,75,2.0,4.0,94,0.00,,,0.00,HR-IXPWINDi_r2_v1.2.,2013-02-26 15:57:00,
2013-02-26 10:02:00,27.6,26.1,30.10,ENE,67,0.0,4.0,94,0.00,,,0.00,HR-IXPWINDi_r2_v1.2.,2013-02-26 16:02:00,
2013-02-26 10:07:00,27.8,26.3,30.10,East,96,1.0,4.0,94,0.00,,,0.00,HR-IXPWINDi_r2_v1.2.,2013-02-26 16:07:00,
2013-02-26 10:12:00,28.0,26.5,30.09,NNE,30,0.0,3.0,94,0.00,,,0.00,HR-IXPWINDi_r2_v1.2.,2013-02-26 16:12:00,
2013-02-26 10:17:00,28.2,26.7,30.09,ENE,74,2.0,6.0,94,0.00,,,0.00,HR-IXPWINDi_r2_v1.2.,2013-02-26 16:17:00,
2013-02-26 10:23:00,28.5,27.0,30.09,ESE,107,5.0,6.0,94,0.00,,,0.00,HR-IXPWINDi_r2_v1.2.,2013-02-26 16:23:00,
2013-02-26 10:28:00,28.7,26.9,30.08,East,88,4.0,5.0,93,0.00,,,0.00,HR-IXPWINDi_r2_v1.2.,2013-02-26 16:28:00,
2013-02-26 10:33:00,28.9,27.1,30.08,East,101,4.0,5.0,93,0.00,,,0.00,HR-IXPWINDi_r2_v1.2.,2013-02-26 16:33:00,
2013-02-26 10:38:00,29.2,27.4,30.08,ESE,121,1.0,5.0,93,0.00,,,0.00,HR-IXPWINDi_r2_v1.2.,2013-02-26 16:38:00,
2013-02-26 10:43:00,29.4,27.3,30.08,SSE,160,5.0,5.0,92,0.00,,,0.00,HR-IXPWINDi_r2_v1.2.,2013-02-26 16:43:00,
2013-02-26 10:49:00,29.6,27.3,30.09,NNE,33,1.0,5.0,91,0.00,,,0.00,HR-IXPWINDi_r2_v1.2.,2013-02-26 16:49:00,
2013-02-26 10:54:00,29.7,26.8,30.08,East,96,2.0,6.0,89,0.00,,,0.00,HR-IXPWINDi_r2_v1.2.,2013-02-26 16:54:00,
2013-02-26 10:59:00,29.6,26.7,30.08,ENE,72,4.0,9.0,89,0.00,,,0.00,HR-IXPWINDi_r2_v1.2.,2013-02-26 16:59:00,
2013-02-26 11:04:00,29.6,26.5,30.08,NE,40,1.0,9.0,88,0.00,,,0.00,HR-IXPWINDi_r2_v1.2.,2013-02-26 17:04:00,
2013-02-26 11:10:00,29.6,26.5,30.08,ESE,118,1.0,8.0,88,0.00,,,0.00,HR-IXPWINDi_r2_v1.2.,2013-02-26 17:10:00,
2013-02-26 11:15:00,29.7,26.6,30.08,ENE,75,3.0,9.0,88,0.00,,,0.00,HR-IXPWINDi_r2_v1.2.,2013-02-26 17:15:00,
2013-02-26 11:20:00,29.7,26.3,30.09,NE,56,3.0,9.0,87,0.00,,,0.00,HR-IXPWINDi_r2_v1.2.,2013-02-26 17:20:00,
2013-02-26 11:25:00,29.8,26.1,30.08,ENE,63,2.0,8.0,86,0.00,,,0.00,HR-IXPWINDi_r2_v1.2.,2013-02-26 17:25:00,
2013-02-26 11:30:00,29.8,25.8,30.08,ESE,114,7.0,12.0,85,0.00,,,0.00,HR-IXPWINDi_r2_v1.2.,2013-02-26 17:30:00,
2013-02-26 11:36:00,29.9,25.9,30.08,ESE,106,6.0,12.0,85,0.00,,,0.00,HR-IXPWINDi_r2_v1.2.,2013-02-26 17:36:00,
2013-02-26 11:41:00,29.9,25.9,30.07,East,93,1.0,13.0,85,0.00,,,0.00,HR-IXPWINDi_r2_v1.2.,2013-02-26 17:41:00,
2013-02-26 11:46:00,30.0,26.0,30.06,NE,39,1.0,13.0,85,0.00,,,0.00,HR-IXPWINDi_r2_v1.2.,2013-02-26 17:46:00,
2013-02-26 11:51:00,30.1,26.1,30.06,NE,46,0.0,11.0,85,0.00,,,0.00,HR-IXPWINDi_r2_v1.2.,2013-02-26 17:51:00,
2013-02-26 11:56:00,30.1,26.1,30.06,ENE,71,0.0,11.0,85,0.00,,,0.00,HR-IXPWINDi_r2_v1.2.,2013-02-26 17:56:00,
2013-02-26 12:01:00,30.2,26.2,30.06,NE,56,1.0,11.0,85,0.00,,,0.00,HR-IXPWINDi_r2_v1.2.,2013-02-26 18:01:00,
2013-02-26 12:06:00,30.3,26.3,30.05,ENE,78,0.0,8.0,85,0.00,,,0.00,HR-IXPWINDi_r2_v1.2.,2013-02-26 18:06:00,
2013-02-26 12:11:00,30.4,26.1,30.04,WSW,252,0.0,9.0,84,0.00,,,0.00,HR-IXPWINDi_r2_v1.2.,2013-02-26 18:11:00,
2013-02-26 12:17:00,30.5,26.2,30.04,NE,53,3.0,15.0,84,0.00,,,0.00,HR-IXPWINDi_r2_v1.2.,2013-02-26 18:17:00,
2013-02-26 12:22:00,30.6,26.0,30.04,SE,137,2.0,15.0,83,0.00,,,0.00,HR-IXPWINDi_r2_v1.2.,2013-02-26 18:22:00,
2013-02-26 12:27:00,30.6,26.0,30.04,West,275,0.0,10.0,83,0.00,,,0.00,HR-IXPWINDi_r2_v1.2.,2013-02-26 18:27:00,
2013-02-26 12:32:00,30.7,26.1,30.04,NE,51,2.0,10.0,83,0.00,,,0.00,HR-IXPWINDi_r2_v1.2.,2013-02-26 18:32:00,
2013-02-26 12:37:00,30.8,26.2,30.04,NE,48,2.0,7.0,83,0.00,,,0.00,HR-IXPWINDi_r2_v1.2.,2013-02-26 18:37:00,
2013-02-26 12:42:00,30.9,26.3,30.03,ENE,70,1.0,6.0,83,0.00,,,0.00,HR-IXPWINDi_r2_v1.2.,2013-02-26 18:42:00,
2013-02-26 12:47:00,30.9,25.7,30.03,ENE,68,5.0,11.0,81,0.00,,,0.00,HR-IXPWINDi_r2_v1.2.,2013-02-26 18:47:00,
2013-02-26 12:52:00,30.9,25.7,30.03,ENE,73,4.0,13.0,81,0.00,,,0.00,HR-IXPWINDi_r2_v1.2.,2013-02-26 18:52:00,
2013-02-26 12:57:00,30.9,26.0,30.03,NE,43,0.0,13.0,82,0.00,,,0.00,HR-IXPWINDi_r2_v1.2.,2013-02-26 18:57:00,
2013-02-26 13:03:00,31.0,26.1,30.03,East,80,2.0,10.0,82,0.00,,,0.00,HR-IXPWINDi_r2_v1.2.,2013-02-26 19:03:00,
2013-02-26 13:08:00,31.0,25.8,30.02,ENE,76,7.0,8.0,81,0.00,,,0.00,HR-IXPWINDi_r2_v1.2.,2013-02-26 19:08:00,
2013-02-26 13:13:00,30.9,25.7,30.02,NW,323,3.0,9.0,81,0.00,,,0.00,HR-IXPWINDi_r2_v1.2.,2013-02-26 19:13:00,
2013-02-26 13:18:00,30.8,25.9,30.02,NE,42,3.0,9.0,82,0.00,,,0.00,HR-IXPWINDi_r2_v1.2.,2013-02-26 19:18:00,
2013-02-26 13:23:00,30.8,25.6,30.01,West,279,4.0,10.0,81,0.00,,,0.00,HR-IXPWINDi_r2_v1.2.,2013-02-26 19:23:00,
2013-02-26 13:29:00,30.9,25.7,30.01,ESE,102,5.0,13.0,81,0.00,,,0.00,HR-IXPWINDi_r2_v1.2.,2013-02-26 19:29:00,
2013-02-26 13:34:00,30.9,25.7,30.01,NNE,30,1.0,13.0,81,0.00,,,0.00,HR-IXPWINDi_r2_v1.2.,2013-02-26 19:34:00,
2013-02-26 13:39:00,30.9,25.7,30.01,NNW,333,3.0,13.0,81,0.00,,,0.00,HR-IXPWINDi_r2_v1.2.,2013-02-26 19:39:00,
2013-02-26 13:45:00,30.9,25.7,30.01,West,265,5.0,10.0,81,0.00,,,0.00,HR-IXPWINDi_r2_v1.2.,2013-02-26 19:45:00,
2013-02-26 13:50:00,30.9,25.7,30.01,NE,53,2.0,7.0,81,0.00,,,0.00,HR-IXPWINDi_r2_v1.2.,2013-02-26 19:50:00,
2013-02-26 13:55:00,30.8,25.4,30.01,ESE,115,2.0,7.0,80,0.00,,,0.00,HR-IXPWINDi_r2_v1.2.,2013-02-26 19:55:00,
2013-02-26 14:00:00,30.9,25.4,30.01,NE,49,4.0,12.0,80,0.00,,,0.00,HR-IXPWINDi_r2_v1.2.,2013-02-26 20:00:00,
2013-02-26 14:05:00,30.9,25.7,30.00,ENE,78,0.0,12.0,81,0.00,,,0.00,HR-IXPWINDi_r2_v1.2.,2013-02-26 20:05:00,
2013-02-26 14:10:00,31.0,25.8,30.00,ENE,65,1.0,10.0,81,0.00,,,0.00,HR-IXPWINDi_r2_v1.2.,2013-02-26 20:10:00,
2013-02-26 14:15:00,31.1,25.9,30.00,ENE,71,0.0,9.0,81,0.00,,,0.00,HR-IXPWINDi_r2_v1.2.,2013-02-26 20:15:00,
2013-02-26 14:20:00,31.3,25.8,30.00,East,94,4.0,9.0,80,0.00,,,0.00,HR-IXPWINDi_r2_v1.2.,2013-02-26 20:20:00,
2013-02-26 14:25:00,31.3,25.5,29.99,SE,132,1.0,12.0,79,0.00,,,0.00,HR-IXPWINDi_r2_v1.2.,2013-02-26 20:25:00,
2013-02-26 14:30:00,31.4,25.9,29.99,WNW,297,1.0,12.0,80,0.00,,,0.00,HR-IXPWINDi_r2_v1.2.,2013-02-26 20:30:00,
2013-02-26 14:35:00,31.5,26.0,29.99,ENE,72,2.0,8.0,80,0.00,,,0.00,HR-IXPWINDi_r2_v1.2.,2013-02-26 20:35:00,
2013-02-26 14:40:00,31.7,25.9,29.99,SW,217,2.0,6.0,79,0.00,,,0.00,HR-IXPWINDi_r2_v1.2.,2013-02-26 20:40:00,
2013-02-26 14:46:00,31.6,25.5,29.98,SW,232,4.0,11.0,78,0.00,,,0.00,HR-IXPWINDi_r2_v1.2.,2013-02-26 20:46:00,
2013-02-26 14:51:00,31.5,25.4,29.98,NNE,33,3.0,11.0,78,0.00,,,0.00,HR-IXPWINDi_r2_v1.2.,2013-02-26 20:51:00,
2013-02-26 14:56:00,31.5,25.7,29.98,East,81,3.0,9.0,79,0.00,,,0.00,HR-IXPWINDi_r2_v1.2.,2013-02-26 20:56:00,
2013-02-26 15:02:00,31.4,25.6,29.98,ENE,67,2.0,9.0,79,0.00,,,0.00,HR-IXPWINDi_r2_v1.2.,2013-02-26 21:02:00,
2013-02-26 15:06:00,31.4,25.6,29.98,North,360,0.0,9.0,79,0.00,,,0.00,HR-IXPWINDi_r2_v1.2.,2013-02-26 21:06:00,
2013-02-26 15:12:00,31.5,25.7,29.98,NW,315,3.0,8.0,79,0.00,,,0.00,HR-IXPWINDi_r2_v1.2.,2013-02-26 21:12:00,
2013-02-26 15:17:00,31.5,25.4,29.97,SSE,155,1.0,7.0,78,0.00,,,0.00,HR-IXPWINDi_r2_v1.2.,2013-02-26 21:17:00,
2013-02-26 15:22:00,31.4,25.6,29.97,ENE,62,3.0,9.0,79,0.00,,,0.00,HR-IXPWINDi_r2_v1.2.,2013-02-26 21:22:00,
2013-02-26 15:27:00,31.5,25.4,29.97,East,84,7.0,9.0,78,0.00,,,0.00,HR-IXPWINDi_r2_v1.2.,2013-02-26 21:27:00,
2013-02-26 15:32:00,31.6,25.5,29.97,ENE,76,4.0,8.0,78,0.00,,,0.00,HR-IXPWINDi_r2_v1.2.,2013-02-26 21:32:00,
2013-02-26 15:38:00,31.6,25.5,29.97,North,5,0.0,8.0,78,0.00,,,0.00,HR-IXPWINDi_r2_v1.2.,2013-02-26 21:38:00,
2013-02-26 15:43:00,31.5,25.1,29.97,East,80,1.0,12.0,77,0.00,,,0.00,HR-IXPWINDi_r2_v1.2.,2013-02-26 21:43:00,
2013-02-26 15:48:00,31.5,25.1,29.98,East,98,1.0,12.0,77,0.00,,,0.00,HR-IXPWINDi_r2_v1.2.,2013-02-26 21:48:00,
2013-02-26 15:53:00,31.5,25.4,29.97,NE,35,1.0,11.0,78,0.00,,,0.00,HR-IXPWINDi_r2_v1.2.,2013-02-26 21:53:00,
2013-02-26 15:58:00,31.4,25.3,29.97,ENE,63,6.0,8.0,78,0.00,,,0.00,HR-IXPWINDi_r2_v1.2.,2013-02-26 21:58:00,
2013-02-26 16:03:00,31.4,25.3,29.97,ESE,115,2.0,11.0,78,0.00,,,0.00,HR-IXPWINDi_r2_v1.2.,2013-02-26 22:03:00,
2013-02-26 16:09:00,31.4,25.3,29.97,West,260,2.0,11.0,78,0.00,,,0.00,HR-IXPWINDi_r2_v1.2.,2013-02-26 22:09:00,
2013-02-26 16:14:00,31.3,25.2,29.97,ENE,76,4.0,7.0,78,0.00,,,0.00,HR-IXPWINDi_r2_v1.2.,2013-02-26 22:14:00,
2013-02-26 16:19:00,31.3,25.2,29.97,WNW,298,1.0,7.0,78,0.00,,,0.00,HR-IXPWINDi_r2_v1.2.,2013-02-26 22:19:00,
2013-02-26 16:24:00,31.3,25.5,29.97,SSW,205,0.0,9.0,79,0.00,,,0.00,HR-IXPWINDi_r2_v1.2.,2013-02-26 22:24:00,
2013-02-26 16:29:00,31.1,25.3,29.97,NNW,332,2.0,9.0,79,0.00,,,0.00,HR-IXPWINDi_r2_v1.2.,2013-02-26 22:29:00,
2013-02-26 16:34:00,31.0,24.9,29.97,West,261,1.0,7.0,78,0.00,,,0.00,HR-IXPWINDi_r2_v1.2.,2013-02-26 22:34:00,
2013-02-26 16:40:00,31.0,24.9,29.97,ENE,61,2.0,7.0,78,0.00,,,0.00,HR-IXPWINDi_r2_v1.2.,2013-02-26 22:40:00,
2013-02-26 16:45:00,30.9,24.8,29.97,East,89,0.0,5.0,78,0.00,,,0.00,HR-IXPWINDi_r2_v1.2.,2013-02-26 22:45:00,
2013-02-26 16:50:00,30.8,24.7,29.98,ENE,61,0.0,5.0,78,0.00,,,0.00,HR-IXPWINDi_r2_v1.2.,2013-02-26 22:50:00,
2013-02-26 16:55:00,30.7,25.0,29.98,NNE,14,2.0,5.0,79,0.00,,,0.00,HR-IXPWINDi_r2_v1.2.,2013-02-26 22:55:00,
2013-02-26 17:01:00,30.7,25.0,29.98,ESE,110,1.0,7.0,79,0.00,,,0.00,HR-IXPWINDi_r2_v1.2.,2013-02-26 23:01:00,
2013-02-26 17:06:00,30.6,24.9,29.98,East,80,2.0,7.0,79,0.00,,,0.00,HR-IXPWINDi_r2_v1.2.,2013-02-26 23:06:00,
2013-02-26 17:11:00,30.6,25.2,29.98,SE,131,0.0,7.0,80,0.00,,,0.00,HR-IXPWINDi_r2_v1.2.,2013-02-26 23:11:00,
2013-02-26 17:16:00,30.5,24.8,29.98,ENE,75,1.0,5.0,79,0.00,,,0.00,HR-IXPWINDi_r2_v1.2.,2013-02-26 23:16:00,
2013-02-26 17:21:00,30.5,24.8,29.98,NE,50,1.0,5.0,79,0.00,,,0.00,HR-IXPWINDi_r2_v1.2.,2013-02-26 23:21:00,
2013-02-26 17:27:00,30.5,25.1,29.98,NE,54,1.0,5.0,80,0.00,,,0.00,HR-IXPWINDi_r2_v1.2.,2013-02-26 23:27:00,
2013-02-26 17:32:00,30.3,24.6,29.98,ENE,61,0.0,7.0,79,0.00,,,0.00,HR-IXPWINDi_r2_v1.2.,2013-02-26 23:32:00,
2013-02-26 17:37:00,30.1,24.4,29.98,East,82,0.0,7.0,79,0.00,,,0.00,HR-IXPWINDi_r2_v1.2.,2013-02-26 23:37:00,
2013-02-26 17:43:00,29.8,24.1,29.98,East,84,1.0,5.0,79,0.00,,,0.00,HR-IXPWINDi_r2_v1.2.,2013-02-26 23:43:00,
2013-02-26 17:48:00,29.6,24.2,29.98,ENE,61,5.0,6.0,80,0.00,,,0.00,HR-IXPWINDi_r2_v1.2.,2013-02-26 23:48:00,
2013-02-26 17:53:00,29.4,24.0,29.98,ENE,76,0.0,6.0,80,0.00,,,0.00,HR-IXPWINDi_r2_v1.2.,2013-02-26 23:53:00,
2013-02-26 17:58:00,29.2,23.8,29.98,East,94,0.0,7.0,80,0.00,,,0.00,HR-IXPWINDi_r2_v1.2.,2013-02-26 23:58:00,
2013-02-26 18:03:00,29.1,24.0,29.97,NE,34,0.0,7.0,81,0.00,,,0.00,HR-IXPWINDi_r2_v1.2.,2013-02-27 00:03:00,
2013-02-26 18:08:00,29.0,23.9,29.97,East,98,1.0,8.0,81,0.00,,,0.00,HR-IXPWINDi_r2_v1.2.,2013-02-27 00:08:00,
2013-02-26 18:13:00,29.0,23.9,29.97,ENE,75,3.0,8.0,81,0.00,,,0.00,HR-IXPWINDi_r2_v1.2.,2013-02-27 00:13:00,
2013-02-26 18:19:00,29.1,24.0,29.97,NE,36,1.0,6.0,81,0.00,,,0.00,HR-IXPWINDi_r2_v1.2.,2013-02-27 00:19:00,
2013-02-26 18:24:00,29.1,24.0,29.97,East,83,5.0,7.0,81,0.00,,,0.00,HR-IXPWINDi_r2_v1.2.,2013-02-27 00:24:00,
2013-02-26 18:29:00,29.0,23.9,29.97,North,11,2.0,7.0,81,0.00,,,0.00,HR-IXPWINDi_r2_v1.2.,2013-02-27 00:29:00,
2013-02-26 18:34:00,29.0,23.9,29.97,SW,236,0.0,10.0,81,0.00,,,0.00,HR-IXPWINDi_r2_v1.2.,2013-02-27 00:34:00,
2013-02-26 18:39:00,28.9,23.5,29.98,WSW,255,2.0,10.0,80,0.00,,,0.00,HR-IXPWINDi_r2_v1.2.,2013-02-27 00:39:00,
2013-02-26 18:45:00,28.8,23.4,29.98,ENE,57,0.0,10.0,80,0.00,,,0.00,HR-IXPWINDi_r2_v1.2.,2013-02-27 00:45:00,
2013-02-26 18:50:00,28.7,23.3,29.98,East,92,4.0,12.0,80,0.00,,,0.00,HR-IXPWINDi_r2_v1.2.,2013-02-27 00:50:00,
2013-02-26 18:55:00,28.6,23.5,29.98,East,85,1.0,12.0,81,0.00,,,0.00,HR-IXPWINDi_r2_v1.2.,2013-02-27 00:55:00,
2013-02-26 19:00:00,28.5,23.4,29.98,East,98,5.0,11.0,81,0.00,,,0.00,HR-IXPWINDi_r2_v1.2.,2013-02-27 01:00:00,
2013-02-26 19:06:00,28.4,23.3,29.98,SSE,158,1.0,11.0,81,0.00,,,0.00,HR-IXPWINDi_r2_v1.2.,2013-02-27 01:06:00,
2013-02-26 19:11:00,28.4,23.6,29.98,NNE,17,2.0,8.0,82,0.00,,,0.00,HR-IXPWINDi_r2_v1.2.,2013-02-27 01:11:00,
2013-02-26 19:16:00,28.3,23.5,29.98,NE,42,8.0,8.0,82,0.00,,,0.00,HR-IXPWINDi_r2_v1.2.,2013-02-27 01:16:00,
2013-02-26 19:21:00,28.2,23.4,29.98,NNE,28,5.0,8.0,82,0.00,,,0.00,HR-IXPWINDi_r2_v1.2.,2013-02-27 01:21:00,
2013-02-26 19:26:00,28.1,23.6,29.98,SE,132,7.0,8.0,83,0.00,,,0.00,HR-IXPWINDi_r2_v1.2.,2013-02-27 01:26:00,
2013-02-26 19:31:00,28.1,23.3,29.98,ENE,78,1.0,10.0,82,0.00,,,0.00,HR-IXPWINDi_r2_v1.2.,2013-02-27 01:31:00,
2013-02-26 19:36:00,28.0,23.5,29.98,East,88,3.0,10.0,83,0.00,,,0.00,HR-IXPWINDi_r2_v1.2.,2013-02-27 01:36:00,
2013-02-26 19:41:00,27.9,23.4,29.98,ENE,67,10.0,11.0,83,0.00,,,0.00,HR-IXPWINDi_r2_v1.2.,2013-02-27 01:41:00,
2013-02-26 19:47:00,27.9,23.4,29.97,NE,55,4.0,11.0,83,0.00,,,0.00,HR-IXPWINDi_r2_v1.2.,2013-02-27 01:47:00,
2013-02-26 19:52:00,27.8,23.3,29.98,ENE,60,8.0,11.0,83,0.00,,,0.00,HR-IXPWINDi_r2_v1.2.,2013-02-27 01:52:00,
2013-02-26 19:57:00,27.7,22.9,29.98,East,83,5.0,13.0,82,0.00,,,0.00,HR-IXPWINDi_r2_v1.2.,2013-02-27 01:57:00,
2013-02-26 20:02:00,27.4,22.6,29.97,North,9,3.0,13.0,82,0.00,,,0.00,HR-IXPWINDi_r2_v1.2.,2013-02-27 02:02:00,
2013-02-26 20:07:00,27.3,22.5,29.97,NE,36,4.0,18.0,82,0.00,,,0.00,HR-IXPWINDi_r2_v1.2.,2013-02-27 02:07:00,
2013-02-26 20:12:00,27.2,22.7,29.97,ENE,63,5.0,18.0,83,0.00,,,0.00,HR-IXPWINDi_r2_v1.2.,2013-02-27 02:12:00,
2013-02-26 20:17:00,27.1,22.6,29.97,East,85,5.0,15.0,83,0.00,,,0.00,HR-IXPWINDi_r2_v1.2.,2013-02-27 02:17:00,
2013-02-26 20:22:00,27.0,22.8,29.97,West,277,4.0,15.0,84,0.00,,,0.00,HR-IXPWINDi_r2_v1.2.,2013-02-27 02:22:00,
2013-02-26 20:28:00,26.9,22.7,29.97,WSW,244,1.0,11.0,84,0.00,,,0.00,HR-IXPWINDi_r2_v1.2.,2013-02-27 02:28:00,
2013-02-26 20:33:00,26.9,22.7,29.97,East,83,11.0,12.0,84,0.00,,,0.00,HR-IXPWINDi_r2_v1.2.,2013-02-27 02:33:00,
2013-02-26 20:38:00,26.9,23.0,29.97,South,190,2.0,12.0,85,0.00,,,0.00,HR-IXPWINDi_r2_v1.2.,2013-02-27 02:38:00,
2013-02-26 20:43:00,26.8,22.9,29.97,ESE,108,4.0,16.0,85,0.00,,,0.00,HR-IXPWINDi_r2_v1.2.,2013-02-27 02:43:00,
2013-02-26 20:48:00,26.8,22.9,29.97,ENE,75,1.0,16.0,85,0.00,,,0.00,HR-IXPWINDi_r2_v1.2.,2013-02-27 02:48:00,
2013-02-26 20:53:00,26.8,22.9,29.97,East,88,5.0,11.0,85,0.00,,,0.00,HR-IXPWINDi_r2_v1.2.,2013-02-27 02:53:00,
2013-02-26 20:58:00,26.8,22.9,29.97,NE,38,1.0,11.0,85,0.00,,,0.00,HR-IXPWINDi_r2_v1.2.,2013-02-27 02:58:00,
2013-02-26 21:03:00,26.8,23.2,29.97,ESE,113,2.0,10.0,86,0.00,,,0.00,HR-IXPWINDi_r2_v1.2.,2013-02-27 03:03:00,
2013-02-26 21:08:00,26.8,23.2,29.97,East,96,4.0,10.0,86,0.00,,,0.00,HR-IXPWINDi_r2_v1.2.,2013-02-27 03:08:00,
2013-02-26 21:13:00,26.8,23.2,29.96,NE,55,3.0,10.0,86,0.00,,,0.00,HR-IXPWINDi_r2_v1.2.,2013-02-27 03:13:00,
2013-02-26 21:19:00,26.7,23.1,29.96,NNE,25,1.0,11.0,86,0.00,,,0.00,HR-IXPWINDi_r2_v1.2.,2013-02-27 03:19:00,
2013-02-26 21:24:00,26.8,23.4,29.96,NNE,19,1.0,11.0,87,0.00,,,0.00,HR-IXPWINDi_r2_v1.2.,2013-02-27 03:24:00,
2013-02-26 21:29:00,26.9,23.5,29.96,ENE,78,3.0,5.0,87,0.00,,,0.00,HR-IXPWINDi_r2_v1.2.,2013-02-27 03:29:00,
2013-02-26 21:34:00,27.0,23.6,29.96,ESE,118,2.0,7.0,87,0.00,,,0.00,HR-IXPWINDi_r2_v1.2.,2013-02-27 03:34:00,
2013-02-26 21:39:00,27.0,23.6,29.96,ENE,74,0.0,7.0,87,0.00,,,0.00,HR-IXPWINDi_r2_v1.2.,2013-02-27 03:39:00,
2013-02-26 21:44:00,26.9,23.5,29.96,NE,34,0.0,7.0,87,0.00,,,0.00,HR-IXPWINDi_r2_v1.2.,2013-02-27 03:44:00,
2013-02-26 21:49:00,26.9,23.5,29.95,ENE,76,0.0,7.0,87,0.00,,,0.00,HR-IXPWINDi_r2_v1.2.,2013-02-27 03:49:00,
2013-02-26 21:54:00,26.9,23.5,29.95,ENE,58,0.0,6.0,87,0.00,,,0.00,HR-IXPWINDi_r2_v1.2.,2013-02-27 03:54:00,
2013-02-26 22:00:00,26.8,23.4,29.95,NE,48,1.0,7.0,87,0.00,,,0.00,HR-IXPWINDi_r2_v1.2.,2013-02-27 04:00:00,
2013-02-26 22:05:00,26.8,23.4,29.95,WNW,295,1.0,8.0,87,0.00,,,0.00,HR-IXPWINDi_r2_v1.2.,2013-02-27 04:05:00,
2013-02-26 22:10:00,26.8,23.4,29.95,East,97,8.0,11.0,87,0.00,,,0.00,HR-IXPWINDi_r2_v1.2.,2013-02-27 04:10:00,
2013-02-26 22:15:00,26.9,23.5,29.95,NNE,14,1.0,11.0,87,0.00,,,0.00,HR-IXPWINDi_r2_v1.2.,2013-02-27 04:15:00,
2013-02-26 22:20:00,26.9,23.5,29.94,NE,49,1.0,8.0,87,0.00,,,0.00,HR-IXPWINDi_r2_v1.2.,2013-02-27 04:20:00,
2013-02-26 22:26:00,26.8,23.4,29.94,ENE,61,5.0,8.0,87,0.00,,,0.00,HR-IXPWINDi_r2_v1.2.,2013-02-27 04:26:00,
2013-02-26 22:31:00,26.8,23.4,29.94,WNW,283,2.0,8.0,87,0.00,,,0.00,HR-IXPWINDi_r2_v1.2.,2013-02-27 04:31:00,
2013-02-26 22:36:00,26.8,23.4,29.94,NNW,327,0.0,8.0,87,0.00,,,0.00,HR-IXPWINDi_r2_v1.2.,2013-02-27 04:36:00,
2013-02-26 22:41:00,26.8,23.4,29.94,ENE,59,0.0,8.0,87,0.00,,,0.00,HR-IXPWINDi_r2_v1.2.,2013-02-27 04:41:00,
2013-02-26 22:46:00,26.8,23.4,29.94,West,273,4.0,8.0,87,0.00,,,0.00,HR-IXPWINDi_r2_v1.2.,2013-02-27 04:46:00,
2013-02-26 22:51:00,26.7,23.3,29.94,North,355,1.0,5.0,87,0.00,,,0.00,HR-IXPWINDi_r2_v1.2.,2013-02-27 04:51:00,
2013-02-26 22:56:00,26.8,23.4,29.94,East,84,1.0,12.0,87,0.00,,,0.00,HR-IXPWINDi_r2_v1.2.,2013-02-27 04:56:00,
2013-02-26 23:00:00,26.8,23.4,29.93,NW,326,3.0,12.0,87,0.00,,,0.00,HR-IXPWINDi_r2_v1.2.,2013-02-27 05:00:00,
2013-02-26 23:05:00,26.8,23.4,29.94,East,96,1.0,5.0,87,0.00,,,0.00,HR-IXPWINDi_r2_v1.2.,2013-02-27 05:05:00,
2013-02-26 23:10:00,26.8,23.4,29.93,WNW,295,1.0,6.0,87,0.00,,,0.00,HR-IXPWINDi_r2_v1.2.,2013-02-27 05:10:00,
2013-02-26 23:15:00,26.8,23.4,29.93,East,86,1.0,6.0,87,0.00,,,0.00,HR-IXPWINDi_r2_v1.2.,2013-02-27 05:15:00,
2013-02-26 23:20:00,26.8,23.7,29.93,West,263,6.0,7.0,88,0.00,,,0.00,HR-IXPWINDi_r2_v1.2.,2013-02-27 05:20:00,
2013-02-26 23:25:00,26.7,23.6,29.93,SW,215,0.0,7.0,88,0.00,,,0.00,HR-IXPWINDi_r2_v1.2.,2013-02-27 05:25:00,
2013-02-26 23:30:00,26.7,23.6,29.93,WSW,253,3.0,6.0,88,0.00,,,0.00,HR-IXPWINDi_r2_v1.2.,2013-02-27 05:30:00,
2013-02-26 23:35:00,26.8,23.7,29.92,West,265,0.0,7.0,88,0.00,,,0.00,HR-IXPWINDi_r2_v1.2.,2013-02-27 05:35:00,
2013-02-26 23:40:00,26.8,23.7,29.93,SW,232,1.0,7.0,88,0.00,,,0.00,HR-IXPWINDi_r2_v1.2.,2013-02-27 05:40:00,
2013-02-26 23:46:00,26.8,23.7,29.92,NNE,22,1.0,5.0,88,0.00,,,0.00,HR-IXPWINDi_r2_v1.2.,2013-02-27 05:46:00,
2013-02-26 23:51:00,26.8,23.7,29.92,East,84,0.0,4.0,88,0.00,,,0.00,HR-IXPWINDi_r2_v1.2.,2013-02-27 05:51:00,
2013-02-26 23:56:00,26.8,23.7,29.92,WNW,285,1.0,4.0,88,0.00,,,0.00,HR-IXPWINDi_r2_v1.2.,2013-02-27 05:56:00,